sensor_id;sensor_type;location;lat;lon;timestamp;P1;durP1;ratioP1;P2;durP2;ratioP2
568;SDS011;269;48.884;9.192;2023-02-21T00:01:34;5.38;;;4.88;;
568;SDS011;269;48.884;9.192;2023-02-21T00:04:19;4.97;;;4.45;;
568;SDS011;269;48.884;9.192;2023-02-21T00:07:05;4.70;;;4.30;;
568;SDS011;269;48.884;9.192;2023-02-21T00:09:49;6.50;;;4.47;;
568;SDS011;269;48.884;9.192;2023-02-21T00:12:34;4.43;;;3.60;;
568;SDS011;269;48.884;9.192;2023-02-21T00:15:19;5.40;;;4.30;;
568;SDS011;269;48.884;9.192;2023-02-21T00:18:03;6.38;;;4.15;;
568;SDS011;269;48.884;9.192;2023-02-21T00:20:48;5.55;;;3.90;;
568;SDS011;269;48.884;9.192;2023-02-21T00:23:34;6.40;;;3.90;;
568;SDS011;269;48.884;9.192;2023-02-21T00:26:19;7.63;;;3.60;;
568;SDS011;269;48.884;9.192;2023-02-21T00:29:05;4.75;;;3.70;;
568;SDS011;269;48.884;9.192;2023-02-21T00:31:50;5.30;;;3.30;;
568;SDS011;269;48.884;9.192;2023-02-21T00:34:35;6.75;;;4.28;;
568;SDS011;269;48.884;9.192;2023-02-21T00:37:20;4.13;;;3.72;;
568;SDS011;269;48.884;9.192;2023-02-21T00:40:06;4.03;;;3.58;;
568;SDS011;269;48.884;9.192;2023-02-21T00:42:54;5.18;;;4.05;;
568;SDS011;269;48.884;9.192;2023-02-21T00:45:38;5.57;;;4.03;;
568;SDS011;269;48.884;9.192;2023-02-21T00:48:23;7.03;;;3.92;;
568;SDS011;269;48.884;9.192;2023-02-21T00:51:08;4.35;;;3.33;;
568;SDS011;269;48.884;9.192;2023-02-21T00:53:53;3.97;;;3.58;;
568;SDS011;269;48.884;9.192;2023-02-21T00:56:38;4.30;;;3.35;;
568;SDS011;269;48.884;9.192;2023-02-21T00:59:23;4.47;;;3.40;;
568;SDS011;269;48.884;9.192;2023-02-21T01:02:08;6.78;;;3.90;;
568;SDS011;269;48.884;9.192;2023-02-21T01:04:53;7.13;;;4.30;;
568;SDS011;269;48.884;9.192;2023-02-21T01:07:37;4.85;;;3.65;;
568;SDS011;269;48.884;9.192;2023-02-21T01:10:22;5.10;;;4.15;;
568;SDS011;269;48.884;9.192;2023-02-21T01:13:08;4.43;;;3.88;;
568;SDS011;269;48.884;9.192;2023-02-21T01:15:54;5.47;;;4.10;;
568;SDS011;269;48.884;9.192;2023-02-21T01:18:38;6.65;;;4.13;;
568;SDS011;269;48.884;9.192;2023-02-21T01:21:24;4.25;;;3.63;;
568;SDS011;269;48.884;9.192;2023-02-21T01:24:09;5.45;;;4.43;;
568;SDS011;269;48.884;9.192;2023-02-21T01:26:57;4.28;;;3.88;;
568;SDS011;269;48.884;9.192;2023-02-21T01:29:43;4.05;;;3.67;;
568;SDS011;269;48.884;9.192;2023-02-21T01:32:28;6.53;;;3.95;;
568;SDS011;269;48.884;9.192;2023-02-21T01:35:12;5.93;;;3.53;;
568;SDS011;269;48.884;9.192;2023-02-21T01:37:57;4.55;;;3.70;;
568;SDS011;269;48.884;9.192;2023-02-21T01:40:41;4.25;;;3.40;;
568;SDS011;269;48.884;9.192;2023-02-21T01:43:27;3.88;;;3.25;;
568;SDS011;269;48.884;9.192;2023-02-21T01:46:14;4.68;;;3.33;;
568;SDS011;269;48.884;9.192;2023-02-21T01:49:01;5.93;;;4.13;;
568;SDS011;269;48.884;9.192;2023-02-21T01:51:52;5.35;;;3.85;;
568;SDS011;269;48.884;9.192;2023-02-21T01:54:39;6.50;;;3.80;;
568;SDS011;269;48.884;9.192;2023-02-21T01:57:32;4.72;;;3.58;;
568;SDS011;269;48.884;9.192;2023-02-21T02:00:19;5.53;;;3.72;;
568;SDS011;269;48.884;9.192;2023-02-21T02:03:05;5.10;;;4.05;;
568;SDS011;269;48.884;9.192;2023-02-21T02:05:53;4.35;;;3.92;;
568;SDS011;269;48.884;9.192;2023-02-21T02:08:40;4.03;;;3.58;;
568;SDS011;269;48.884;9.192;2023-02-21T02:11:31;7.20;;;3.95;;
568;SDS011;269;48.884;9.192;2023-02-21T02:14:31;5.60;;;3.70;;
568;SDS011;269;48.884;9.192;2023-02-21T02:17:13;3.70;;;3.35;;
568;SDS011;269;48.884;9.192;2023-02-21T02:20:10;5.30;;;3.92;;
568;SDS011;269;48.884;9.192;2023-02-21T02:22:59;4.60;;;3.50;;
568;SDS011;269;48.884;9.192;2023-02-21T02:25:52;5.38;;;3.88;;
568;SDS011;269;48.884;9.192;2023-02-21T02:28:36;4.50;;;3.50;;
568;SDS011;269;48.884;9.192;2023-02-21T02:31:27;4.20;;;3.80;;
568;SDS011;269;48.884;9.192;2023-02-21T02:37:13;4.75;;;3.58;;
568;SDS011;269;48.884;9.192;2023-02-21T02:39:47;4.88;;;4.15;;
568;SDS011;269;48.884;9.192;2023-02-21T02:42:24;4.10;;;3.70;;
568;SDS011;269;48.884;9.192;2023-02-21T02:44:59;3.95;;;3.55;;
568;SDS011;269;48.884;9.192;2023-02-21T02:47:33;5.55;;;3.92;;
568;SDS011;269;48.884;9.192;2023-02-21T02:50:05;5.53;;;4.35;;
568;SDS011;269;48.884;9.192;2023-02-21T02:52:34;3.80;;;3.45;;
568;SDS011;269;48.884;9.192;2023-02-21T02:55:04;6.05;;;4.50;;
568;SDS011;269;48.884;9.192;2023-02-21T02:57:47;7.00;;;4.40;;
568;SDS011;269;48.884;9.192;2023-02-21T03:00:16;5.28;;;3.42;;
568;SDS011;269;48.884;9.192;2023-02-21T03:02:49;3.33;;;3.03;;
568;SDS011;269;48.884;9.192;2023-02-21T03:05:40;6.63;;;3.45;;
568;SDS011;269;48.884;9.192;2023-02-21T03:08:16;6.40;;;3.92;;
568;SDS011;269;48.884;9.192;2023-02-21T03:10:52;4.90;;;4.43;;
568;SDS011;269;48.884;9.192;2023-02-21T03:13:26;5.18;;;3.90;;
568;SDS011;269;48.884;9.192;2023-02-21T03:16:03;5.47;;;4.13;;
568;SDS011;269;48.884;9.192;2023-02-21T03:18:36;6.55;;;3.80;;
568;SDS011;269;48.884;9.192;2023-02-21T03:21:10;5.20;;;4.60;;
568;SDS011;269;48.884;9.192;2023-02-21T03:23:39;8.48;;;4.78;;
568;SDS011;269;48.884;9.192;2023-02-21T03:26:10;5.13;;;3.90;;
568;SDS011;269;48.884;9.192;2023-02-21T03:28:39;5.55;;;4.35;;
568;SDS011;269;48.884;9.192;2023-02-21T03:31:07;7.18;;;4.80;;
568;SDS011;269;48.884;9.192;2023-02-21T03:33:36;5.55;;;4.47;;
568;SDS011;269;48.884;9.192;2023-02-21T03:36:04;7.07;;;5.50;;
568;SDS011;269;48.884;9.192;2023-02-21T03:38:34;6.53;;;5.50;;
568;SDS011;269;48.884;9.192;2023-02-21T03:41:01;6.28;;;5.40;;
568;SDS011;269;48.884;9.192;2023-02-21T03:43:28;8.65;;;7.00;;
568;SDS011;269;48.884;9.192;2023-02-21T03:45:55;10.00;;;6.75;;
568;SDS011;269;48.884;9.192;2023-02-21T03:48:22;9.13;;;6.63;;
568;SDS011;269;48.884;9.192;2023-02-21T03:50:49;11.18;;;8.10;;
568;SDS011;269;48.884;9.192;2023-02-21T03:53:16;10.75;;;7.75;;
568;SDS011;269;48.884;9.192;2023-02-21T03:55:44;9.07;;;7.13;;
568;SDS011;269;48.884;9.192;2023-02-21T03:58:11;7.93;;;7.13;;
568;SDS011;269;48.884;9.192;2023-02-21T04:00:38;10.45;;;7.68;;
568;SDS011;269;48.884;9.192;2023-02-21T04:03:06;11.77;;;7.57;;
568;SDS011;269;48.884;9.192;2023-02-21T04:05:33;7.72;;;6.93;;
568;SDS011;269;48.884;9.192;2023-02-21T04:08:00;10.45;;;7.15;;
568;SDS011;269;48.884;9.192;2023-02-21T04:10:29;7.88;;;6.80;;
568;SDS011;269;48.884;9.192;2023-02-21T04:12:57;12.57;;;7.60;;
568;SDS011;269;48.884;9.192;2023-02-21T04:15:24;9.18;;;7.13;;
568;SDS011;269;48.884;9.192;2023-02-21T04:17:51;9.07;;;7.20;;
568;SDS011;269;48.884;9.192;2023-02-21T04:20:18;8.80;;;7.60;;
568;SDS011;269;48.884;9.192;2023-02-21T04:22:45;8.73;;;7.45;;
568;SDS011;269;48.884;9.192;2023-02-21T04:25:12;10.85;;;7.28;;
568;SDS011;269;48.884;9.192;2023-02-21T04:27:39;10.13;;;7.15;;
568;SDS011;269;48.884;9.192;2023-02-21T04:30:09;8.88;;;7.53;;
568;SDS011;269;48.884;9.192;2023-02-21T04:32:36;9.05;;;7.20;;
568;SDS011;269;48.884;9.192;2023-02-21T04:35:03;9.98;;;8.07;;
568;SDS011;269;48.884;9.192;2023-02-21T04:37:31;9.63;;;7.45;;
568;SDS011;269;48.884;9.192;2023-02-21T04:39:58;8.35;;;7.55;;
568;SDS011;269;48.884;9.192;2023-02-21T04:42:25;12.80;;;8.82;;
568;SDS011;269;48.884;9.192;2023-02-21T04:44:52;9.43;;;7.43;;
568;SDS011;269;48.884;9.192;2023-02-21T04:47:20;11.63;;;8.45;;
568;SDS011;269;48.884;9.192;2023-02-21T04:49:47;12.95;;;8.50;;
568;SDS011;269;48.884;9.192;2023-02-21T04:52:16;10.65;;;8.02;;
568;SDS011;269;48.884;9.192;2023-02-21T04:54:45;10.48;;;8.30;;
568;SDS011;269;48.884;9.192;2023-02-21T04:57:13;12.20;;;8.75;;
568;SDS011;269;48.884;9.192;2023-02-21T04:59:40;11.40;;;8.32;;
568;SDS011;269;48.884;9.192;2023-02-21T05:02:07;10.95;;;8.18;;
568;SDS011;269;48.884;9.192;2023-02-21T05:04:36;11.25;;;8.63;;
568;SDS011;269;48.884;9.192;2023-02-21T05:07:03;7.97;;;6.93;;
568;SDS011;269;48.884;9.192;2023-02-21T05:09:31;8.98;;;6.95;;
568;SDS011;269;48.884;9.192;2023-02-21T05:11:58;8.77;;;7.38;;
568;SDS011;269;48.884;9.192;2023-02-21T05:14:25;7.25;;;6.55;;
568;SDS011;269;48.884;9.192;2023-02-21T05:16:52;8.63;;;7.10;;
568;SDS011;269;48.884;9.192;2023-02-21T05:19:19;6.45;;;5.65;;
568;SDS011;269;48.884;9.192;2023-02-21T05:21:54;8.85;;;6.53;;
568;SDS011;269;48.884;9.192;2023-02-21T05:24:22;7.95;;;6.57;;
568;SDS011;269;48.884;9.192;2023-02-21T05:26:49;8.57;;;6.90;;
568;SDS011;269;48.884;9.192;2023-02-21T05:29:17;7.65;;;6.30;;
568;SDS011;269;48.884;9.192;2023-02-21T05:31:44;7.25;;;6.55;;
568;SDS011;269;48.884;9.192;2023-02-21T05:34:12;9.98;;;6.80;;
568;SDS011;269;48.884;9.192;2023-02-21T05:36:39;9.13;;;7.38;;
568;SDS011;269;48.884;9.192;2023-02-21T05:39:08;9.80;;;7.75;;
568;SDS011;269;48.884;9.192;2023-02-21T05:41:35;8.40;;;7.15;;
568;SDS011;269;48.884;9.192;2023-02-21T05:44:04;7.93;;;6.88;;
568;SDS011;269;48.884;9.192;2023-02-21T05:46:32;8.55;;;7.38;;
568;SDS011;269;48.884;9.192;2023-02-21T05:49:00;8.00;;;6.43;;
568;SDS011;269;48.884;9.192;2023-02-21T05:51:32;10.23;;;7.72;;
568;SDS011;269;48.884;9.192;2023-02-21T05:54:00;8.52;;;6.70;;
568;SDS011;269;48.884;9.192;2023-02-21T05:56:29;8.75;;;7.35;;
568;SDS011;269;48.884;9.192;2023-02-21T05:58:56;9.68;;;7.00;;
568;SDS011;269;48.884;9.192;2023-02-21T06:01:23;8.52;;;6.85;;
568;SDS011;269;48.884;9.192;2023-02-21T06:03:50;7.53;;;6.80;;
568;SDS011;269;48.884;9.192;2023-02-21T06:06:17;10.48;;;7.10;;
568;SDS011;269;48.884;9.192;2023-02-21T06:08:44;10.38;;;7.13;;
568;SDS011;269;48.884;9.192;2023-02-21T06:11:13;8.60;;;5.93;;
568;SDS011;269;48.884;9.192;2023-02-21T06:13:42;6.90;;;6.30;;
568;SDS011;269;48.884;9.192;2023-02-21T06:16:09;6.78;;;5.68;;
568;SDS011;269;48.884;9.192;2023-02-21T06:18:36;6.88;;;5.55;;
568;SDS011;269;48.884;9.192;2023-02-21T06:21:03;6.82;;;5.95;;
568;SDS011;269;48.884;9.192;2023-02-21T06:23:30;6.95;;;5.57;;
568;SDS011;269;48.884;9.192;2023-02-21T06:25:57;7.32;;;6.00;;
568;SDS011;269;48.884;9.192;2023-02-21T06:28:26;8.95;;;6.25;;
568;SDS011;269;48.884;9.192;2023-02-21T06:30:55;6.57;;;5.78;;
568;SDS011;269;48.884;9.192;2023-02-21T06:33:23;6.65;;;5.90;;
568;SDS011;269;48.884;9.192;2023-02-21T06:35:50;5.97;;;5.38;;
568;SDS011;269;48.884;9.192;2023-02-21T06:38:18;8.15;;;6.22;;
568;SDS011;269;48.884;9.192;2023-02-21T06:40:45;6.32;;;5.68;;
568;SDS011;269;48.884;9.192;2023-02-21T06:43:12;7.50;;;5.90;;
568;SDS011;269;48.884;9.192;2023-02-21T06:45:39;6.80;;;6.07;;
568;SDS011;269;48.884;9.192;2023-02-21T06:48:08;9.05;;;6.32;;
568;SDS011;269;48.884;9.192;2023-02-21T06:50:39;7.53;;;6.15;;
568;SDS011;269;48.884;9.192;2023-02-21T06:53:06;8.55;;;6.45;;
568;SDS011;269;48.884;9.192;2023-02-21T06:55:33;8.30;;;6.80;;
568;SDS011;269;48.884;9.192;2023-02-21T06:58:00;8.95;;;7.10;;
568;SDS011;269;48.884;9.192;2023-02-21T07:00:27;9.10;;;7.30;;
568;SDS011;269;48.884;9.192;2023-02-21T07:02:54;10.80;;;7.45;;
568;SDS011;269;48.884;9.192;2023-02-21T07:05:23;9.45;;;7.75;;
568;SDS011;269;48.884;9.192;2023-02-21T07:07:49;10.45;;;7.70;;
568;SDS011;269;48.884;9.192;2023-02-21T07:10:16;11.27;;;7.85;;
568;SDS011;269;48.884;9.192;2023-02-21T07:12:44;14.38;;;7.40;;
568;SDS011;269;48.884;9.192;2023-02-21T07:15:11;11.95;;;7.93;;
568;SDS011;269;48.884;9.192;2023-02-21T07:17:38;12.05;;;7.95;;
568;SDS011;269;48.884;9.192;2023-02-21T07:20:06;8.35;;;7.45;;
568;SDS011;269;48.884;9.192;2023-02-21T07:22:35;7.85;;;6.70;;
568;SDS011;269;48.884;9.192;2023-02-21T07:25:02;11.38;;;7.57;;
568;SDS011;269;48.884;9.192;2023-02-21T07:27:30;9.38;;;7.10;;
568;SDS011;269;48.884;9.192;2023-02-21T07:29:57;8.07;;;6.57;;
568;SDS011;269;48.884;9.192;2023-02-21T07:32:24;8.15;;;7.35;;
568;SDS011;269;48.884;9.192;2023-02-21T07:34:51;9.02;;;8.10;;
568;SDS011;269;48.884;9.192;2023-02-21T07:37:18;9.50;;;7.10;;
568;SDS011;269;48.884;9.192;2023-02-21T07:39:47;8.55;;;7.07;;
568;SDS011;269;48.884;9.192;2023-02-21T07:42:14;9.57;;;7.43;;
568;SDS011;269;48.884;9.192;2023-02-21T07:44:41;14.75;;;6.57;;
568;SDS011;269;48.884;9.192;2023-02-21T07:47:08;10.80;;;7.05;;
568;SDS011;269;48.884;9.192;2023-02-21T07:49:36;9.10;;;6.65;;
568;SDS011;269;48.884;9.192;2023-02-21T07:52:04;9.10;;;6.78;;
568;SDS011;269;48.884;9.192;2023-02-21T07:54:31;10.55;;;7.65;;
568;SDS011;269;48.884;9.192;2023-02-21T07:57:00;9.70;;;7.38;;
568;SDS011;269;48.884;9.192;2023-02-21T07:59:26;11.05;;;6.38;;
568;SDS011;269;48.884;9.192;2023-02-21T08:01:53;10.80;;;7.15;;
568;SDS011;269;48.884;9.192;2023-02-21T08:04:21;7.70;;;6.32;;
568;SDS011;269;48.884;9.192;2023-02-21T08:06:48;7.15;;;6.45;;
568;SDS011;269;48.884;9.192;2023-02-21T08:09:15;9.05;;;6.82;;
568;SDS011;269;48.884;9.192;2023-02-21T08:11:43;10.02;;;6.53;;
568;SDS011;269;48.884;9.192;2023-02-21T08:14:11;7.65;;;6.82;;
568;SDS011;269;48.884;9.192;2023-02-21T08:16:38;9.00;;;6.47;;
568;SDS011;269;48.884;9.192;2023-02-21T08:19:05;10.45;;;7.03;;
568;SDS011;269;48.884;9.192;2023-02-21T08:21:33;9.40;;;6.75;;
568;SDS011;269;48.884;9.192;2023-02-21T08:24:00;9.52;;;6.93;;
568;SDS011;269;48.884;9.192;2023-02-21T08:26:28;7.28;;;6.53;;
568;SDS011;269;48.884;9.192;2023-02-21T08:28:55;8.65;;;6.70;;
568;SDS011;269;48.884;9.192;2023-02-21T08:31:23;8.30;;;6.90;;
568;SDS011;269;48.884;9.192;2023-02-21T08:33:51;8.45;;;6.30;;
568;SDS011;269;48.884;9.192;2023-02-21T08:36:18;7.53;;;6.28;;
568;SDS011;269;48.884;9.192;2023-02-21T08:38:45;6.65;;;6.05;;
568;SDS011;269;48.884;9.192;2023-02-21T08:41:12;6.22;;;5.68;;
568;SDS011;269;48.884;9.192;2023-02-21T08:43:40;6.30;;;5.68;;
568;SDS011;269;48.884;9.192;2023-02-21T08:46:07;10.23;;;6.22;;
568;SDS011;269;48.884;9.192;2023-02-21T08:48:36;7.05;;;5.75;;
568;SDS011;269;48.884;9.192;2023-02-21T08:51:03;9.95;;;6.38;;
568;SDS011;269;48.884;9.192;2023-02-21T08:53:30;9.05;;;5.80;;
568;SDS011;269;48.884;9.192;2023-02-21T08:55:57;7.68;;;6.15;;
568;SDS011;269;48.884;9.192;2023-02-21T08:58:24;8.55;;;6.40;;
568;SDS011;269;48.884;9.192;2023-02-21T09:00:51;6.88;;;6.00;;
568;SDS011;269;48.884;9.192;2023-02-21T09:03:18;10.90;;;6.75;;
568;SDS011;269;48.884;9.192;2023-02-21T09:05:46;7.80;;;6.37;;
568;SDS011;269;48.884;9.192;2023-02-21T09:08:13;7.60;;;6.13;;
568;SDS011;269;48.884;9.192;2023-02-21T09:10:40;7.18;;;5.90;;
568;SDS011;269;48.884;9.192;2023-02-21T09:13:11;6.87;;;6.20;;
568;SDS011;269;48.884;9.192;2023-02-21T09:15:38;8.33;;;6.20;;
568;SDS011;269;48.884;9.192;2023-02-21T09:18:06;6.93;;;6.23;;
568;SDS011;269;48.884;9.192;2023-02-21T09:20:32;9.53;;;6.83;;
568;SDS011;269;48.884;9.192;2023-02-21T09:23:01;9.77;;;6.40;;
568;SDS011;269;48.884;9.192;2023-02-21T09:25:29;6.80;;;6.10;;
568;SDS011;269;48.884;9.192;2023-02-21T09:27:56;6.90;;;6.20;;
568;SDS011;269;48.884;9.192;2023-02-21T09:30:24;7.93;;;6.17;;
568;SDS011;269;48.884;9.192;2023-02-21T09:32:54;14.30;;;6.60;;
568;SDS011;269;48.884;9.192;2023-02-21T09:35:21;7.27;;;6.50;;
568;SDS011;269;48.884;9.192;2023-02-21T09:37:48;6.77;;;5.80;;
568;SDS011;269;48.884;9.192;2023-02-21T09:40:20;8.20;;;6.43;;
568;SDS011;269;48.884;9.192;2023-02-21T09:42:51;7.33;;;6.30;;
568;SDS011;269;48.884;9.192;2023-02-21T09:45:21;7.97;;;6.03;;
568;SDS011;269;48.884;9.192;2023-02-21T09:47:52;6.40;;;5.70;;
568;SDS011;269;48.884;9.192;2023-02-21T09:50:24;6.20;;;5.60;;
568;SDS011;269;48.884;9.192;2023-02-21T09:52:55;8.00;;;5.90;;
568;SDS011;269;48.884;9.192;2023-02-21T09:55:28;6.50;;;5.50;;
568;SDS011;269;48.884;9.192;2023-02-21T09:57:57;7.43;;;5.20;;
568;SDS011;269;48.884;9.192;2023-02-21T10:00:26;6.23;;;5.63;;
568;SDS011;269;48.884;9.192;2023-02-21T10:03:01;8.27;;;5.60;;
568;SDS011;269;48.884;9.192;2023-02-21T10:05:38;6.00;;;5.40;;
568;SDS011;269;48.884;9.192;2023-02-21T10:08:13;5.93;;;5.10;;
568;SDS011;269;48.884;9.192;2023-02-21T10:10:50;7.03;;;5.60;;
568;SDS011;269;48.884;9.192;2023-02-21T10:13:26;5.93;;;5.20;;
568;SDS011;269;48.884;9.192;2023-02-21T10:16:05;5.13;;;4.70;;
568;SDS011;269;48.884;9.192;2023-02-21T10:18:38;4.67;;;4.17;;
568;SDS011;269;48.884;9.192;2023-02-21T10:21:14;5.70;;;4.93;;
568;SDS011;269;48.884;9.192;2023-02-21T10:23:47;5.63;;;4.80;;
568;SDS011;269;48.884;9.192;2023-02-21T10:26:22;5.57;;;5.07;;
568;SDS011;269;48.884;9.192;2023-02-21T10:28:51;5.67;;;4.70;;
568;SDS011;269;48.884;9.192;2023-02-21T10:31:21;4.63;;;4.20;;
568;SDS011;269;48.884;9.192;2023-02-21T10:33:55;6.50;;;4.10;;
568;SDS011;269;48.884;9.192;2023-02-21T10:36:24;4.90;;;3.90;;
568;SDS011;269;48.884;9.192;2023-02-21T10:38:54;5.10;;;4.33;;
568;SDS011;269;48.884;9.192;2023-02-21T10:41:26;5.00;;;4.60;;
568;SDS011;269;48.884;9.192;2023-02-21T10:43:57;7.17;;;5.00;;
568;SDS011;269;48.884;9.192;2023-02-21T10:46:29;4.50;;;4.10;;
568;SDS011;269;48.884;9.192;2023-02-21T10:49:08;5.87;;;4.10;;
568;SDS011;269;48.884;9.192;2023-02-21T10:52:01;5.07;;;4.60;;
568;SDS011;269;48.884;9.192;2023-02-21T10:54:30;5.53;;;4.73;;
568;SDS011;269;48.884;9.192;2023-02-21T10:56:59;5.00;;;4.50;;
568;SDS011;269;48.884;9.192;2023-02-21T10:59:29;5.03;;;4.53;;
568;SDS011;269;48.884;9.192;2023-02-21T11:01:58;5.30;;;4.80;;
568;SDS011;269;48.884;9.192;2023-02-21T11:04:29;4.50;;;4.10;;
568;SDS011;269;48.884;9.192;2023-02-21T11:07:00;4.87;;;4.37;;
568;SDS011;269;48.884;9.192;2023-02-21T11:09:32;4.93;;;4.27;;
568;SDS011;269;48.884;9.192;2023-02-21T11:12:04;5.00;;;4.50;;
568;SDS011;269;48.884;9.192;2023-02-21T11:14:42;4.60;;;4.20;;
568;SDS011;269;48.884;9.192;2023-02-21T11:17:15;7.00;;;4.40;;
568;SDS011;269;48.884;9.192;2023-02-21T11:19:45;5.77;;;4.33;;
568;SDS011;269;48.884;9.192;2023-02-21T11:22:18;3.67;;;3.30;;
568;SDS011;269;48.884;9.192;2023-02-21T11:24:52;3.80;;;3.50;;
568;SDS011;269;48.884;9.192;2023-02-21T11:27:27;4.07;;;3.67;;
568;SDS011;269;48.884;9.192;2023-02-21T11:29:56;3.83;;;3.43;;
568;SDS011;269;48.884;9.192;2023-02-21T11:32:26;3.13;;;2.93;;
568;SDS011;269;48.884;9.192;2023-02-21T11:35:00;4.47;;;4.03;;
568;SDS011;269;48.884;9.192;2023-02-21T11:37:29;4.33;;;3.60;;
568;SDS011;269;48.884;9.192;2023-02-21T11:39:57;4.27;;;3.47;;
568;SDS011;269;48.884;9.192;2023-02-21T11:42:28;3.13;;;2.83;;
568;SDS011;269;48.884;9.192;2023-02-21T11:45:14;3.60;;;3.10;;
568;SDS011;269;48.884;9.192;2023-02-21T11:47:51;3.63;;;2.90;;
568;SDS011;269;48.884;9.192;2023-02-21T11:50:25;3.40;;;3.03;;
568;SDS011;269;48.884;9.192;2023-02-21T11:55:57;4.10;;;3.20;;
568;SDS011;269;48.884;9.192;2023-02-21T11:58:33;3.80;;;3.10;;
568;SDS011;269;48.884;9.192;2023-02-21T12:01:10;2.70;;;2.50;;
568;SDS011;269;48.884;9.192;2023-02-21T12:03:47;2.93;;;2.53;;
568;SDS011;269;48.884;9.192;2023-02-21T12:06:24;3.70;;;2.73;;
568;SDS011;269;48.884;9.192;2023-02-21T12:08:59;2.67;;;2.43;;
568;SDS011;269;48.884;9.192;2023-02-21T12:11:32;3.17;;;2.40;;
568;SDS011;269;48.884;9.192;2023-02-21T12:17:12;4.03;;;2.80;;
568;SDS011;269;48.884;9.192;2023-02-21T12:22:59;4.30;;;3.80;;
568;SDS011;269;48.884;9.192;2023-02-21T12:25:35;3.27;;;2.97;;
568;SDS011;269;48.884;9.192;2023-02-21T12:28:16;3.87;;;3.40;;
568;SDS011;269;48.884;9.192;2023-02-21T12:31:03;7.83;;;3.50;;
568;SDS011;269;48.884;9.192;2023-02-21T12:33:42;3.40;;;3.10;;
568;SDS011;269;48.884;9.192;2023-02-21T12:36:17;3.40;;;2.80;;
568;SDS011;269;48.884;9.192;2023-02-21T12:39:08;4.17;;;3.67;;
568;SDS011;269;48.884;9.192;2023-02-21T12:44:32;3.93;;;3.60;;
568;SDS011;269;48.884;9.192;2023-02-21T12:47:09;5.40;;;3.37;;
568;SDS011;269;48.884;9.192;2023-02-21T12:49:43;3.53;;;3.20;;
568;SDS011;269;48.884;9.192;2023-02-21T12:52:16;4.13;;;3.50;;
568;SDS011;269;48.884;9.192;2023-02-21T12:54:49;3.00;;;2.73;;
568;SDS011;269;48.884;9.192;2023-02-21T12:57:23;3.00;;;2.70;;
568;SDS011;269;48.884;9.192;2023-02-21T12:59:56;3.77;;;3.20;;
568;SDS011;269;48.884;9.192;2023-02-21T13:02:35;5.47;;;2.90;;
568;SDS011;269;48.884;9.192;2023-02-21T13:05:10;3.20;;;2.90;;
568;SDS011;269;48.884;9.192;2023-02-21T13:07:42;4.17;;;3.23;;
568;SDS011;269;48.884;9.192;2023-02-21T13:10:15;3.40;;;3.00;;
568;SDS011;269;48.884;9.192;2023-02-21T13:12:46;4.63;;;2.80;;
568;SDS011;269;48.884;9.192;2023-02-21T13:15:20;3.63;;;2.90;;
568;SDS011;269;48.884;9.192;2023-02-21T13:17:51;4.90;;;2.80;;
568;SDS011;269;48.884;9.192;2023-02-21T13:20:25;3.80;;;2.90;;
568;SDS011;269;48.884;9.192;2023-02-21T13:26:25;2.97;;;2.60;;
568;SDS011;269;48.884;9.192;2023-02-21T13:29:09;2.53;;;2.33;;
568;SDS011;269;48.884;9.192;2023-02-21T13:31:43;3.63;;;2.53;;
568;SDS011;269;48.884;9.192;2023-02-21T13:34:11;3.00;;;2.80;;
568;SDS011;269;48.884;9.192;2023-02-21T13:36:45;3.40;;;2.47;;
568;SDS011;269;48.884;9.192;2023-02-21T13:39:13;2.87;;;2.30;;
568;SDS011;269;48.884;9.192;2023-02-21T13:41:43;2.50;;;2.30;;
568;SDS011;269;48.884;9.192;2023-02-21T13:44:16;3.43;;;2.80;;
568;SDS011;269;48.884;9.192;2023-02-21T13:49:41;3.60;;;2.50;;
568;SDS011;269;48.884;9.192;2023-02-21T14:03:48;2.70;;;2.50;;
568;SDS011;269;48.884;9.192;2023-02-21T14:06:28;3.00;;;2.50;;
568;SDS011;269;48.884;9.192;2023-02-21T14:09:03;2.67;;;2.47;;
568;SDS011;269;48.884;9.192;2023-02-21T14:11:37;3.50;;;2.57;;
568;SDS011;269;48.884;9.192;2023-02-21T14:14:21;3.17;;;2.40;;
568;SDS011;269;48.884;9.192;2023-02-21T14:16:52;2.83;;;2.40;;
568;SDS011;269;48.884;9.192;2023-02-21T14:19:25;3.70;;;1.90;;
568;SDS011;269;48.884;9.192;2023-02-21T14:22:01;2.40;;;2.20;;
568;SDS011;269;48.884;9.192;2023-02-21T14:24:31;3.07;;;2.27;;
568;SDS011;269;48.884;9.192;2023-02-21T14:27:04;3.80;;;2.20;;
568;SDS011;269;48.884;9.192;2023-02-21T14:32:48;2.80;;;2.23;;
568;SDS011;269;48.884;9.192;2023-02-21T14:35:22;3.00;;;2.10;;
568;SDS011;269;48.884;9.192;2023-02-21T14:37:52;2.53;;;2.30;;
568;SDS011;269;48.884;9.192;2023-02-21T14:40:26;3.07;;;1.93;;
568;SDS011;269;48.884;9.192;2023-02-21T14:43:04;2.80;;;2.50;;
568;SDS011;269;48.884;9.192;2023-02-21T14:45:43;2.50;;;2.13;;
568;SDS011;269;48.884;9.192;2023-02-21T14:48:39;2.40;;;2.20;;
568;SDS011;269;48.884;9.192;2023-02-21T15:00:56;3.00;;;2.30;;
568;SDS011;269;48.884;9.192;2023-02-21T15:03:32;2.80;;;1.90;;
568;SDS011;269;48.884;9.192;2023-02-21T15:06:04;3.03;;;2.00;;
568;SDS011;269;48.884;9.192;2023-02-21T15:08:40;2.93;;;1.93;;
568;SDS011;269;48.884;9.192;2023-02-21T15:14:10;3.00;;;2.10;;
568;SDS011;269;48.884;9.192;2023-02-21T15:16:42;2.57;;;1.97;;
568;SDS011;269;48.884;9.192;2023-02-21T15:19:17;3.10;;;1.90;;
568;SDS011;269;48.884;9.192;2023-02-21T15:24:41;2.23;;;1.93;;
568;SDS011;269;48.884;9.192;2023-02-21T15:27:21;2.43;;;2.10;;
568;SDS011;269;48.884;9.192;2023-02-21T15:30:00;2.67;;;2.30;;
568;SDS011;269;48.884;9.192;2023-02-21T15:32:33;2.37;;;2.17;;
568;SDS011;269;48.884;9.192;2023-02-21T15:35:00;3.13;;;1.90;;
568;SDS011;269;48.884;9.192;2023-02-21T15:37:30;2.30;;;1.70;;
568;SDS011;269;48.884;9.192;2023-02-21T15:40:03;2.00;;;1.80;;
568;SDS011;269;48.884;9.192;2023-02-21T15:42:36;1.93;;;1.83;;
568;SDS011;269;48.884;9.192;2023-02-21T15:45:06;2.20;;;2.00;;
568;SDS011;269;48.884;9.192;2023-02-21T15:47:36;2.50;;;2.30;;
568;SDS011;269;48.884;9.192;2023-02-21T15:50:12;3.03;;;2.70;;
568;SDS011;269;48.884;9.192;2023-02-21T15:52:43;3.23;;;2.00;;
568;SDS011;269;48.884;9.192;2023-02-21T15:55:25;2.47;;;2.10;;
568;SDS011;269;48.884;9.192;2023-02-21T15:57:58;2.77;;;2.30;;
568;SDS011;269;48.884;9.192;2023-02-21T16:00:26;2.60;;;2.30;;
568;SDS011;269;48.884;9.192;2023-02-21T16:06:07;2.30;;;2.10;;
568;SDS011;269;48.884;9.192;2023-02-21T16:08:50;2.57;;;2.17;;
568;SDS011;269;48.884;9.192;2023-02-21T16:11:25;2.90;;;2.47;;
568;SDS011;269;48.884;9.192;2023-02-21T16:14:05;3.90;;;2.30;;
568;SDS011;269;48.884;9.192;2023-02-21T16:16:38;3.20;;;2.10;;
568;SDS011;269;48.884;9.192;2023-02-21T16:19:08;3.80;;;2.17;;
568;SDS011;269;48.884;9.192;2023-02-21T16:21:35;3.47;;;2.10;;
568;SDS011;269;48.884;9.192;2023-02-21T16:24:14;3.30;;;2.43;;
568;SDS011;269;48.884;9.192;2023-02-21T16:27:01;2.57;;;2.33;;
568;SDS011;269;48.884;9.192;2023-02-21T16:29:29;3.30;;;2.30;;
568;SDS011;269;48.884;9.192;2023-02-21T16:31:56;3.20;;;2.50;;
568;SDS011;269;48.884;9.192;2023-02-21T16:34:25;2.53;;;2.27;;
568;SDS011;269;48.884;9.192;2023-02-21T16:36:59;3.10;;;2.37;;
568;SDS011;269;48.884;9.192;2023-02-21T16:39:28;3.73;;;2.50;;
568;SDS011;269;48.884;9.192;2023-02-21T16:41:56;3.07;;;2.40;;
568;SDS011;269;48.884;9.192;2023-02-21T16:44:23;5.53;;;2.33;;
568;SDS011;269;48.884;9.192;2023-02-21T16:46:50;3.10;;;2.60;;
568;SDS011;269;48.884;9.192;2023-02-21T16:49:17;2.90;;;2.40;;
568;SDS011;269;48.884;9.192;2023-02-21T16:51:46;5.13;;;2.80;;
568;SDS011;269;48.884;9.192;2023-02-21T16:54:13;4.10;;;2.60;;
568;SDS011;269;48.884;9.192;2023-02-21T16:56:41;4.13;;;2.53;;
568;SDS011;269;48.884;9.192;2023-02-21T16:59:12;3.50;;;2.60;;
568;SDS011;269;48.884;9.192;2023-02-21T17:01:42;3.87;;;2.97;;
568;SDS011;269;48.884;9.192;2023-02-21T17:04:12;3.60;;;2.70;;
568;SDS011;269;48.884;9.192;2023-02-21T17:06:50;4.53;;;2.80;;
568;SDS011;269;48.884;9.192;2023-02-21T17:09:22;3.63;;;2.83;;
568;SDS011;269;48.884;9.192;2023-02-21T17:11:50;4.23;;;2.90;;
568;SDS011;269;48.884;9.192;2023-02-21T17:14:18;4.53;;;2.97;;
568;SDS011;269;48.884;9.192;2023-02-21T17:16:45;4.30;;;3.63;;